sensor_id;sensor_type;location;lat;lon;timestamp;P1;durP1;ratioP1;P2;durP2;ratioP2
20069;SDS011;10195;50.868;4.382;2023-06-14T00:29:50;13.35;;;5.25;;
20069;SDS011;10195;50.868;4.382;2023-06-14T00:32:15;12.60;;;6.47;;
20069;SDS011;10195;50.868;4.382;2023-06-14T00:34:41;6.88;;;5.68;;
20069;SDS011;10195;50.868;4.382;2023-06-14T00:37:06;10.35;;;5.40;;
20069;SDS011;10195;50.868;4.382;2023-06-14T00:39:32;13.43;;;5.97;;
20069;SDS011;10195;50.868;4.382;2023-06-14T00:41:58;8.77;;;5.80;;
20069;SDS011;10195;50.868;4.382;2023-06-14T00:44:24;10.30;;;5.75;;
20069;SDS011;10195;50.868;4.382;2023-06-14T00:46:50;10.55;;;5.82;;
20069;SDS011;10195;50.868;4.382;2023-06-14T00:49:16;13.95;;;6.47;;
20069;SDS011;10195;50.868;4.382;2023-06-14T00:51:43;9.05;;;5.95;;
20069;SDS011;10195;50.868;4.382;2023-06-14T00:54:08;11.15;;;5.57;;
20069;SDS011;10195;50.868;4.382;2023-06-14T00:56:38;10.20;;;5.65;;
20069;SDS011;10195;50.868;4.382;2023-06-14T00:59:04;9.48;;;5.70;;
20069;SDS011;10195;50.868;4.382;2023-06-14T01:01:31;14.25;;;6.57;;
20069;SDS011;10195;50.868;4.382;2023-06-14T01:03:59;11.95;;;6.35;;
20069;SDS011;10195;50.868;4.382;2023-06-14T01:06:35;11.32;;;5.97;;
20069;SDS011;10195;50.868;4.382;2023-06-14T01:15:20;12.00;;;6.40;;
20069;SDS011;10195;50.868;4.382;2023-06-14T01:17:48;8.38;;;6.13;;
20069;SDS011;10195;50.868;4.382;2023-06-14T01:20:16;10.43;;;6.22;;
20069;SDS011;10195;50.868;4.382;2023-06-14T01:22:51;12.43;;;6.03;;
20069;SDS011;10195;50.868;4.382;2023-06-14T01:25:21;10.07;;;6.20;;
20069;SDS011;10195;50.868;4.382;2023-06-14T01:27:55;11.75;;;6.15;;
20069;SDS011;10195;50.868;4.382;2023-06-14T01:30:23;11.25;;;5.80;;
20069;SDS011;10195;50.868;4.382;2023-06-14T01:32:53;9.50;;;5.75;;
20069;SDS011;10195;50.868;4.382;2023-06-14T01:35:21;7.88;;;6.03;;
20069;SDS011;10195;50.868;4.382;2023-06-14T01:37:47;13.77;;;5.82;;
20069;SDS011;10195;50.868;4.382;2023-06-14T01:40:14;14.02;;;6.32;;
20069;SDS011;10195;50.868;4.382;2023-06-14T01:42:41;14.35;;;6.72;;
20069;SDS011;10195;50.868;4.382;2023-06-14T01:45:09;12.35;;;6.32;;
20069;SDS011;10195;50.868;4.382;2023-06-14T01:47:35;11.18;;;6.03;;
20069;SDS011;10195;50.868;4.382;2023-06-14T01:50:02;11.65;;;6.70;;
20069;SDS011;10195;50.868;4.382;2023-06-14T01:52:28;8.77;;;6.10;;
20069;SDS011;10195;50.868;4.382;2023-06-14T01:54:54;15.68;;;6.88;;
20069;SDS011;10195;50.868;4.382;2023-06-14T01:57:20;13.10;;;6.78;;
20069;SDS011;10195;50.868;4.382;2023-06-14T01:59:47;11.70;;;7.00;;
20069;SDS011;10195;50.868;4.382;2023-06-14T02:02:14;17.90;;;7.10;;
20069;SDS011;10195;50.868;4.382;2023-06-14T02:04:40;10.27;;;6.18;;
20069;SDS011;10195;50.868;4.382;2023-06-14T02:07:06;12.00;;;6.78;;
20069;SDS011;10195;50.868;4.382;2023-06-14T02:09:33;10.70;;;6.47;;
20069;SDS011;10195;50.868;4.382;2023-06-14T02:11:58;17.77;;;7.30;;
20069;SDS011;10195;50.868;4.382;2023-06-14T02:14:24;9.43;;;6.25;;
20069;SDS011;10195;50.868;4.382;2023-06-14T02:16:51;11.77;;;6.78;;
20069;SDS011;10195;50.868;4.382;2023-06-14T02:19:18;12.63;;;6.75;;
20069;SDS011;10195;50.868;4.382;2023-06-14T02:21:44;12.82;;;6.85;;
20069;SDS011;10195;50.868;4.382;2023-06-14T02:24:11;11.23;;;6.65;;
20069;SDS011;10195;50.868;4.382;2023-06-14T02:26:36;10.60;;;7.10;;
20069;SDS011;10195;50.868;4.382;2023-06-14T02:29:07;10.82;;;6.45;;
20069;SDS011;10195;50.868;4.382;2023-06-14T02:31:36;8.90;;;6.68;;
20069;SDS011;10195;50.868;4.382;2023-06-14T02:34:01;12.77;;;7.43;;
20069;SDS011;10195;50.868;4.382;2023-06-14T02:36:27;10.07;;;7.20;;
20069;SDS011;10195;50.868;4.382;2023-06-14T02:38:55;13.75;;;7.43;;
20069;SDS011;10195;50.868;4.382;2023-06-14T02:41:22;10.07;;;7.28;;
20069;SDS011;10195;50.868;4.382;2023-06-14T02:43:49;12.80;;;7.20;;
20069;SDS011;10195;50.868;4.382;2023-06-14T02:46:14;10.98;;;7.65;;
20069;SDS011;10195;50.868;4.382;2023-06-14T02:48:40;10.05;;;7.47;;
20069;SDS011;10195;50.868;4.382;2023-06-14T02:51:06;8.40;;;7.35;;
20069;SDS011;10195;50.868;4.382;2023-06-14T02:53:33;12.70;;;7.40;;
20069;SDS011;10195;50.868;4.382;2023-06-14T02:55:59;12.88;;;7.82;;
20069;SDS011;10195;50.868;4.382;2023-06-14T02:58:26;13.60;;;6.95;;
20069;SDS011;10195;50.868;4.382;2023-06-14T03:00:51;14.63;;;7.43;;
20069;SDS011;10195;50.868;4.382;2023-06-14T03:03:20;14.88;;;7.63;;
20069;SDS011;10195;50.868;4.382;2023-06-14T03:05:47;11.30;;;7.70;;
20069;SDS011;10195;50.868;4.382;2023-06-14T03:08:14;10.93;;;7.70;;
20069;SDS011;10195;50.868;4.382;2023-06-14T03:10:51;9.77;;;7.35;;
20069;SDS011;10195;50.868;4.382;2023-06-14T03:13:17;15.85;;;7.30;;
20069;SDS011;10195;50.868;4.382;2023-06-14T03:15:46;10.77;;;7.60;;
20069;SDS011;10195;50.868;4.382;2023-06-14T03:18:12;12.63;;;7.47;;
20069;SDS011;10195;50.868;4.382;2023-06-14T03:20:40;8.57;;;6.85;;
20069;SDS011;10195;50.868;4.382;2023-06-14T03:23:07;19.98;;;8.27;;
20069;SDS011;10195;50.868;4.382;2023-06-14T03:25:33;24.58;;;7.95;;
20069;SDS011;10195;50.868;4.382;2023-06-14T03:28:01;12.90;;;8.27;;
20069;SDS011;10195;50.868;4.382;2023-06-14T03:30:27;30.02;;;7.07;;
20069;SDS011;10195;50.868;4.382;2023-06-14T03:32:55;15.85;;;8.45;;
20069;SDS011;10195;50.868;4.382;2023-06-14T03:35:21;11.30;;;7.32;;
20069;SDS011;10195;50.868;4.382;2023-06-14T03:37:47;13.98;;;8.00;;
20069;SDS011;10195;50.868;4.382;2023-06-14T03:40:14;15.38;;;7.70;;
20069;SDS011;10195;50.868;4.382;2023-06-14T03:42:41;10.43;;;7.18;;
20069;SDS011;10195;50.868;4.382;2023-06-14T03:45:06;12.40;;;8.13;;
20069;SDS011;10195;50.868;4.382;2023-06-14T03:47:33;10.25;;;8.05;;
20069;SDS011;10195;50.868;4.382;2023-06-14T03:49:59;13.75;;;7.82;;
20069;SDS011;10195;50.868;4.382;2023-06-14T03:52:26;10.75;;;7.75;;
20069;SDS011;10195;50.868;4.382;2023-06-14T03:54:52;10.55;;;8.40;;
20069;SDS011;10195;50.868;4.382;2023-06-14T03:57:18;9.00;;;7.43;;
20069;SDS011;10195;50.868;4.382;2023-06-14T03:59:45;17.15;;;7.30;;
20069;SDS011;10195;50.868;4.382;2023-06-14T04:02:10;17.67;;;7.97;;
20069;SDS011;10195;50.868;4.382;2023-06-14T04:04:36;12.60;;;8.07;;
20069;SDS011;10195;50.868;4.382;2023-06-14T04:07:02;13.32;;;7.93;;
20069;SDS011;10195;50.868;4.382;2023-06-14T04:09:29;15.90;;;7.72;;
20069;SDS011;10195;50.868;4.382;2023-06-14T04:11:55;16.20;;;7.85;;
20069;SDS011;10195;50.868;4.382;2023-06-14T04:14:21;12.50;;;7.80;;
20069;SDS011;10195;50.868;4.382;2023-06-14T04:16:47;13.35;;;7.82;;
20069;SDS011;10195;50.868;4.382;2023-06-14T04:19:14;13.82;;;7.35;;
20069;SDS011;10195;50.868;4.382;2023-06-14T04:21:40;15.20;;;8.52;;
20069;SDS011;10195;50.868;4.382;2023-06-14T04:24:06;11.65;;;7.90;;
20069;SDS011;10195;50.868;4.382;2023-06-14T04:26:37;15.30;;;8.25;;
20069;SDS011;10195;50.868;4.382;2023-06-14T04:29:04;14.93;;;7.78;;
20069;SDS011;10195;50.868;4.382;2023-06-14T04:31:30;18.00;;;7.38;;
20069;SDS011;10195;50.868;4.382;2023-06-14T04:34:02;18.00;;;8.00;;
20069;SDS011;10195;50.868;4.382;2023-06-14T04:36:31;13.70;;;8.10;;
20069;SDS011;10195;50.868;4.382;2023-06-14T04:38:59;13.15;;;8.00;;
20069;SDS011;10195;50.868;4.382;2023-06-14T04:41:28;15.55;;;7.82;;
20069;SDS011;10195;50.868;4.382;2023-06-14T04:43:56;16.70;;;8.48;;
20069;SDS011;10195;50.868;4.382;2023-06-14T04:46:23;13.18;;;7.65;;
20069;SDS011;10195;50.868;4.382;2023-06-14T04:48:49;13.35;;;7.60;;
20069;SDS011;10195;50.868;4.382;2023-06-14T04:51:15;13.13;;;8.25;;
20069;SDS011;10195;50.868;4.382;2023-06-14T04:53:41;11.90;;;8.20;;
20069;SDS011;10195;50.868;4.382;2023-06-14T04:56:08;18.55;;;7.90;;
20069;SDS011;10195;50.868;4.382;2023-06-14T04:58:34;14.55;;;8.88;;
20069;SDS011;10195;50.868;4.382;2023-06-14T05:01:00;14.27;;;7.93;;
20069;SDS011;10195;50.868;4.382;2023-06-14T05:03:27;12.50;;;7.57;;
20069;SDS011;10195;50.868;4.382;2023-06-14T05:05:53;12.95;;;7.78;;
20069;SDS011;10195;50.868;4.382;2023-06-14T05:08:20;12.88;;;7.68;;
20069;SDS011;10195;50.868;4.382;2023-06-14T05:10:48;17.95;;;8.57;;
20069;SDS011;10195;50.868;4.382;2023-06-14T05:13:14;17.10;;;8.60;;
20069;SDS011;10195;50.868;4.382;2023-06-14T05:15:40;13.48;;;7.90;;
20069;SDS011;10195;50.868;4.382;2023-06-14T05:18:06;14.57;;;8.30;;
20069;SDS011;10195;50.868;4.382;2023-06-14T05:20:34;10.55;;;7.45;;
20069;SDS011;10195;50.868;4.382;2023-06-14T05:23:02;11.32;;;8.23;;
20069;SDS011;10195;50.868;4.382;2023-06-14T05:25:27;12.88;;;7.15;;
20069;SDS011;10195;50.868;4.382;2023-06-14T05:27:53;21.80;;;8.18;;
20069;SDS011;10195;50.868;4.382;2023-06-14T05:30:19;17.95;;;8.00;;
20069;SDS011;10195;50.868;4.382;2023-06-14T05:32:45;18.75;;;8.20;;
20069;SDS011;10195;50.868;4.382;2023-06-14T05:35:10;16.33;;;7.82;;
20069;SDS011;10195;50.868;4.382;2023-06-14T05:37:36;15.35;;;7.78;;
20069;SDS011;10195;50.868;4.382;2023-06-14T05:40:02;19.55;;;8.20;;
20069;SDS011;10195;50.868;4.382;2023-06-14T05:42:30;15.68;;;7.90;;
20069;SDS011;10195;50.868;4.382;2023-06-14T05:44:56;14.80;;;7.63;;
20069;SDS011;10195;50.868;4.382;2023-06-14T05:47:22;15.02;;;7.68;;
20069;SDS011;10195;50.868;4.382;2023-06-14T05:49:48;19.88;;;7.85;;
20069;SDS011;10195;50.868;4.382;2023-06-14T05:52:13;19.92;;;8.00;;
20069;SDS011;10195;50.868;4.382;2023-06-14T05:54:39;17.02;;;8.13;;
20069;SDS011;10195;50.868;4.382;2023-06-14T05:57:06;19.65;;;7.50;;
20069;SDS011;10195;50.868;4.382;2023-06-14T05:59:32;16.50;;;7.82;;
20069;SDS011;10195;50.868;4.382;2023-06-14T06:01:58;11.00;;;7.50;;
20069;SDS011;10195;50.868;4.382;2023-06-14T06:04:23;13.55;;;7.55;;
20069;SDS011;10195;50.868;4.382;2023-06-14T06:06:50;15.35;;;7.60;;
20069;SDS011;10195;50.868;4.382;2023-06-14T06:09:16;10.73;;;7.30;;
20069;SDS011;10195;50.868;4.382;2023-06-14T06:11:42;21.42;;;7.50;;
20069;SDS011;10195;50.868;4.382;2023-06-14T06:14:07;21.90;;;7.25;;
20069;SDS011;10195;50.868;4.382;2023-06-14T06:16:33;13.35;;;8.10;;
20069;SDS011;10195;50.868;4.382;2023-06-14T06:18:58;13.93;;;7.45;;
20069;SDS011;10195;50.868;4.382;2023-06-14T06:21:24;17.42;;;8.13;;
20069;SDS011;10195;50.868;4.382;2023-06-14T06:23:50;17.33;;;7.85;;
20069;SDS011;10195;50.868;4.382;2023-06-14T06:26:15;11.43;;;7.45;;
20069;SDS011;10195;50.868;4.382;2023-06-14T06:28:41;11.88;;;7.20;;
20069;SDS011;10195;50.868;4.382;2023-06-14T06:31:07;10.45;;;6.97;;
20069;SDS011;10195;50.868;4.382;2023-06-14T06:33:32;13.63;;;7.15;;
20069;SDS011;10195;50.868;4.382;2023-06-14T06:35:58;15.27;;;6.95;;
20069;SDS011;10195;50.868;4.382;2023-06-14T06:38:24;15.43;;;6.80;;
20069;SDS011;10195;50.868;4.382;2023-06-14T06:40:50;19.02;;;7.22;;
20069;SDS011;10195;50.868;4.382;2023-06-14T06:43:15;10.55;;;7.05;;
20069;SDS011;10195;50.868;4.382;2023-06-14T06:45:42;13.05;;;7.30;;
20069;SDS011;10195;50.868;4.382;2023-06-14T06:48:08;17.95;;;7.25;;
20069;SDS011;10195;50.868;4.382;2023-06-14T06:50:37;17.63;;;7.22;;
20069;SDS011;10195;50.868;4.382;2023-06-14T06:53:03;14.95;;;6.70;;
20069;SDS011;10195;50.868;4.382;2023-06-14T06:55:29;12.23;;;6.88;;
20069;SDS011;10195;50.868;4.382;2023-06-14T06:57:55;10.57;;;6.25;;
20069;SDS011;10195;50.868;4.382;2023-06-14T07:00:21;10.70;;;6.15;;
20069;SDS011;10195;50.868;4.382;2023-06-14T07:02:46;14.65;;;6.25;;
20069;SDS011;10195;50.868;4.382;2023-06-14T07:05:12;11.88;;;6.60;;
20069;SDS011;10195;50.868;4.382;2023-06-14T07:07:38;13.30;;;6.50;;
20069;SDS011;10195;50.868;4.382;2023-06-14T07:10:04;14.10;;;6.82;;
20069;SDS011;10195;50.868;4.382;2023-06-14T07:12:30;11.85;;;6.22;;
20069;SDS011;10195;50.868;4.382;2023-06-14T07:14:59;13.63;;;6.30;;
20069;SDS011;10195;50.868;4.382;2023-06-14T07:17:25;20.65;;;7.30;;
20069;SDS011;10195;50.868;4.382;2023-06-14T07:19:50;19.08;;;6.15;;
20069;SDS011;10195;50.868;4.382;2023-06-14T07:22:16;15.13;;;6.57;;
20069;SDS011;10195;50.868;4.382;2023-06-14T07:24:42;12.13;;;6.43;;
20069;SDS011;10195;50.868;4.382;2023-06-14T07:27:08;13.95;;;5.97;;
20069;SDS011;10195;50.868;4.382;2023-06-14T07:29:34;17.23;;;6.30;;
20069;SDS011;10195;50.868;4.382;2023-06-14T07:32:00;15.13;;;6.25;;
20069;SDS011;10195;50.868;4.382;2023-06-14T07:34:25;15.13;;;6.65;;
20069;SDS011;10195;50.868;4.382;2023-06-14T07:36:52;14.35;;;6.22;;
20069;SDS011;10195;50.868;4.382;2023-06-14T07:39:19;14.20;;;6.30;;
20069;SDS011;10195;50.868;4.382;2023-06-14T07:41:44;12.25;;;6.10;;
20069;SDS011;10195;50.868;4.382;2023-06-14T07:44:10;13.55;;;6.30;;
20069;SDS011;10195;50.868;4.382;2023-06-14T07:46:37;8.82;;;5.60;;
20069;SDS011;10195;50.868;4.382;2023-06-14T07:49:03;19.40;;;6.22;;
20069;SDS011;10195;50.868;4.382;2023-06-14T07:51:28;12.85;;;5.63;;
20069;SDS011;10195;50.868;4.382;2023-06-14T07:53:54;13.95;;;6.10;;
20069;SDS011;10195;50.868;4.382;2023-06-14T07:56:20;15.35;;;6.18;;
20069;SDS011;10195;50.868;4.382;2023-06-14T07:58:46;9.70;;;5.40;;
20069;SDS011;10195;50.868;4.382;2023-06-14T08:01:12;10.27;;;5.47;;
20069;SDS011;10195;50.868;4.382;2023-06-14T08:03:37;13.43;;;6.07;;
20069;SDS011;10195;50.868;4.382;2023-06-14T08:06:03;15.50;;;5.68;;
20069;SDS011;10195;50.868;4.382;2023-06-14T08:08:29;9.90;;;6.20;;
20069;SDS011;10195;50.868;4.382;2023-06-14T08:10:55;8.75;;;5.65;;
20069;SDS011;10195;50.868;4.382;2023-06-14T08:13:21;13.57;;;5.63;;
20069;SDS011;10195;50.868;4.382;2023-06-14T08:15:47;10.95;;;5.97;;
20069;SDS011;10195;50.868;4.382;2023-06-14T08:18:12;9.77;;;5.43;;
20069;SDS011;10195;50.868;4.382;2023-06-14T08:20:38;8.85;;;5.88;;
20069;SDS011;10195;50.868;4.382;2023-06-14T08:23:05;15.80;;;5.65;;
20069;SDS011;10195;50.868;4.382;2023-06-14T08:25:31;8.40;;;5.82;;
20069;SDS011;10195;50.868;4.382;2023-06-14T08:27:56;16.52;;;5.78;;
20069;SDS011;10195;50.868;4.382;2023-06-14T08:30:22;6.85;;;4.88;;
20069;SDS011;10195;50.868;4.382;2023-06-14T08:32:48;10.75;;;5.50;;
20069;SDS011;10195;50.868;4.382;2023-06-14T08:35:13;14.75;;;5.60;;
20069;SDS011;10195;50.868;4.382;2023-06-14T08:37:42;25.80;;;6.85;;
20069;SDS011;10195;50.868;4.382;2023-06-14T08:40:13;10.35;;;6.22;;
20069;SDS011;10195;50.868;4.382;2023-06-14T08:42:44;8.18;;;5.68;;
20069;SDS011;10195;50.868;4.382;2023-06-14T08:45:13;18.52;;;6.05;;
20069;SDS011;10195;50.868;4.382;2023-06-14T08:47:39;14.48;;;5.53;;
20069;SDS011;10195;50.868;4.382;2023-06-14T08:50:05;11.80;;;6.13;;
20069;SDS011;10195;50.868;4.382;2023-06-14T08:52:33;13.45;;;5.70;;
20069;SDS011;10195;50.868;4.382;2023-06-14T08:55:10;8.40;;;5.15;;
20069;SDS011;10195;50.868;4.382;2023-06-14T08:57:37;14.35;;;5.55;;
20069;SDS011;10195;50.868;4.382;2023-06-14T09:00:04;17.40;;;6.13;;
20069;SDS011;10195;50.868;4.382;2023-06-14T09:02:37;9.93;;;5.00;;
20069;SDS011;10195;50.868;4.382;2023-06-14T09:05:03;8.25;;;6.00;;
20069;SDS011;10195;50.868;4.382;2023-06-14T09:07:29;14.40;;;6.00;;
20069;SDS011;10195;50.868;4.382;2023-06-14T09:10:13;8.15;;;5.47;;
20069;SDS011;10195;50.868;4.382;2023-06-14T09:12:40;14.45;;;5.55;;
20069;SDS011;10195;50.868;4.382;2023-06-14T09:15:06;13.52;;;5.35;;
20069;SDS011;10195;50.868;4.382;2023-06-14T09:17:36;7.55;;;5.43;;
20069;SDS011;10195;50.868;4.382;2023-06-14T09:20:03;12.07;;;5.78;;
20069;SDS011;10195;50.868;4.382;2023-06-14T09:22:31;13.52;;;5.82;;
20069;SDS011;10195;50.868;4.382;2023-06-14T09:24:57;12.07;;;5.30;;
20069;SDS011;10195;50.868;4.382;2023-06-14T09:27:25;8.95;;;5.30;;
20069;SDS011;10195;50.868;4.382;2023-06-14T09:29:52;7.80;;;5.13;;
20069;SDS011;10195;50.868;4.382;2023-06-14T09:32:18;12.88;;;6.18;;
20069;SDS011;10195;50.868;4.382;2023-06-14T09:34:44;13.20;;;5.38;;
20069;SDS011;10195;50.868;4.382;2023-06-14T09:37:10;11.65;;;5.20;;
20069;SDS011;10195;50.868;4.382;2023-06-14T09:39:48;12.63;;;5.82;;
20069;SDS011;10195;50.868;4.382;2023-06-14T09:42:17;12.20;;;5.82;;
20069;SDS011;10195;50.868;4.382;2023-06-14T09:44:48;13.02;;;5.50;;
20069;SDS011;10195;50.868;4.382;2023-06-14T09:47:17;8.90;;;5.25;;
20069;SDS011;10195;50.868;4.382;2023-06-14T09:49:43;10.90;;;4.32;;
20069;SDS011;10195;50.868;4.382;2023-06-14T09:52:16;13.82;;;5.28;;
20069;SDS011;10195;50.868;4.382;2023-06-14T09:54:44;14.45;;;5.57;;
20069;SDS011;10195;50.868;4.382;2023-06-14T09:57:15;22.40;;;6.47;;
20069;SDS011;10195;50.868;4.382;2023-06-14T09:59:45;18.30;;;5.30;;
20069;SDS011;10195;50.868;4.382;2023-06-14T10:02:24;12.30;;;5.25;;
20069;SDS011;10195;50.868;4.382;2023-06-14T10:05:12;7.22;;;4.93;;
20069;SDS011;10195;50.868;4.382;2023-06-14T10:07:59;14.73;;;5.15;;
20069;SDS011;10195;50.868;4.382;2023-06-14T10:10:28;8.38;;;4.63;;
20069;SDS011;10195;50.868;4.382;2023-06-14T10:12:53;7.30;;;4.93;;
20069;SDS011;10195;50.868;4.382;2023-06-14T10:15:25;8.98;;;5.47;;
20069;SDS011;10195;50.868;4.382;2023-06-14T10:17:54;6.45;;;4.90;;
20069;SDS011;10195;50.868;4.382;2023-06-14T10:20:33;8.18;;;4.88;;
20069;SDS011;10195;50.868;4.382;2023-06-14T10:25:38;9.35;;;5.35;;
20069;SDS011;10195;50.868;4.382;2023-06-14T10:28:13;10.85;;;4.80;;
20069;SDS011;10195;50.868;4.382;2023-06-14T10:31:01;11.02;;;5.30;;
20069;SDS011;10195;50.868;4.382;2023-06-14T10:33:31;13.50;;;4.75;;
20069;SDS011;10195;50.868;4.382;2023-06-14T10:36:10;10.43;;;4.20;;
20069;SDS011;10195;50.868;4.382;2023-06-14T10:38:59;7.95;;;4.28;;
20069;SDS011;10195;50.868;4.382;2023-06-14T10:41:28;12.05;;;4.65;;
20069;SDS011;10195;50.868;4.382;2023-06-14T10:46:48;8.90;;;4.55;;
20069;SDS011;10195;50.868;4.382;2023-06-14T10:49:35;7.97;;;4.55;;
20069;SDS011;10195;50.868;4.382;2023-06-14T10:52:13;9.05;;;4.53;;
20069;SDS011;10195;50.868;4.382;2023-06-14T10:57:50;8.60;;;4.53;;
20069;SDS011;10195;50.868;4.382;2023-06-14T11:00:24;5.63;;;4.00;;
20069;SDS011;10195;50.868;4.382;2023-06-14T11:10:51;8.48;;;4.10;;
20069;SDS011;10195;50.868;4.382;2023-06-14T11:13:27;9.65;;;4.63;;
20069;SDS011;10195;50.868;4.382;2023-06-14T11:15:53;7.28;;;5.00;;
20069;SDS011;10195;50.868;4.382;2023-06-14T11:18:21;4.63;;;3.75;;
20069;SDS011;10195;50.868;4.382;2023-06-14T11:20:49;6.97;;;4.05;;
20069;SDS011;10195;50.868;4.382;2023-06-14T11:23:15;15.05;;;7.05;;
20069;SDS011;10195;50.868;4.382;2023-06-14T11:25:41;8.73;;;4.65;;
20069;SDS011;10195;50.868;4.382;2023-06-14T11:28:07;9.77;;;4.40;;
20069;SDS011;10195;50.868;4.382;2023-06-14T11:30:33;11.38;;;4.22;;
20069;SDS011;10195;50.868;4.382;2023-06-14T11:32:59;8.95;;;3.88;;
20069;SDS011;10195;50.868;4.382;2023-06-14T11:35:25;12.82;;;4.95;;
20069;SDS011;10195;50.868;4.382;2023-06-14T11:37:55;4.55;;;4.05;;
20069;SDS011;10195;50.868;4.382;2023-06-14T11:40:23;17.58;;;11.82;;
20069;SDS011;10195;50.868;4.382;2023-06-14T11:42:49;10.73;;;4.75;;
20069;SDS011;10195;50.868;4.382;2023-06-14T11:45:15;11.05;;;7.13;;
20069;SDS011;10195;50.868;4.382;2023-06-14T11:47:41;7.85;;;4.28;;
20069;SDS011;10195;50.868;4.382;2023-06-14T11:50:07;13.07;;;4.45;;
20069;SDS011;10195;50.868;4.382;2023-06-14T11:52:34;13.57;;;4.40;;
20069;SDS011;10195;50.868;4.382;2023-06-14T11:55:01;7.93;;;4.78;;
20069;SDS011;10195;50.868;4.382;2023-06-14T11:57:30;12.52;;;4.50;;
20069;SDS011;10195;50.868;4.382;2023-06-14T11:59:58;9.93;;;4.50;;
20069;SDS011;10195;50.868;4.382;2023-06-14T12:02:24;9.25;;;4.90;;
20069;SDS011;10195;50.868;4.382;2023-06-14T12:04:52;5.45;;;4.10;;
20069;SDS011;10195;50.868;4.382;2023-06-14T12:07:18;15.40;;;4.38;;
20069;SDS011;10195;50.868;4.382;2023-06-14T12:12:18;8.25;;;4.55;;
20069;SDS011;10195;50.868;4.382;2023-06-14T12:14:46;6.05;;;4.45;;
20069;SDS011;10195;50.868;4.382;2023-06-14T12:17:13;13.13;;;4.25;;
20069;SDS011;10195;50.868;4.382;2023-06-14T12:19:42;10.52;;;4.03;;
20069;SDS011;10195;50.868;4.382;2023-06-14T12:22:12;11.95;;;4.68;;
20069;SDS011;10195;50.868;4.382;2023-06-14T12:24:39;7.82;;;4.43;;
20069;SDS011;10195;50.868;4.382;2023-06-14T12:27:07;8.18;;;4.15;;
20069;SDS011;10195;50.868;4.382;2023-06-14T12:29:33;8.25;;;3.90;;
20069;SDS011;10195;50.868;4.382;2023-06-14T12:31:59;8.68;;;3.95;;
20069;SDS011;10195;50.868;4.382;2023-06-14T12:34:25;12.77;;;3.90;;
20069;SDS011;10195;50.868;4.382;2023-06-14T12:36:55;8.73;;;4.10;;
20069;SDS011;10195;50.868;4.382;2023-06-14T12:39:21;7.47;;;3.83;;
20069;SDS011;10195;50.868;4.382;2023-06-14T12:41:47;6.38;;;3.70;;
20069;SDS011;10195;50.868;4.382;2023-06-14T12:44:14;17.50;;;4.05;;
20069;SDS011;10195;50.868;4.382;2023-06-14T12:46:40;8.30;;;3.80;;
20069;SDS011;10195;50.868;4.382;2023-06-14T12:49:08;6.18;;;3.70;;
20069;SDS011;10195;50.868;4.382;2023-06-14T12:51:34;9.38;;;3.53;;
20069;SDS011;10195;50.868;4.382;2023-06-14T12:54:00;6.78;;;3.45;;
20069;SDS011;10195;50.868;4.382;2023-06-14T12:56:26;16.95;;;4.47;;
20069;SDS011;10195;50.868;4.382;2023-06-14T12:58:52;13.95;;;4.40;;
20069;SDS011;10195;50.868;4.382;2023-06-14T13:01:18;6.78;;;3.50;;
20069;SDS011;10195;50.868;4.382;2023-06-14T13:03:45;6.07;;;3.75;;
20069;SDS011;10195;50.868;4.382;2023-06-14T13:06:14;7.80;;;3.70;;
20069;SDS011;10195;50.868;4.382;2023-06-14T13:08:40;9.90;;;3.88;;
20069;SDS011;10195;50.868;4.382;2023-06-14T13:11:06;10.82;;;3.90;;
20069;SDS011;10195;50.868;4.382;2023-06-14T13:13:32;7.90;;;3.45;;
20069;SDS011;10195;50.868;4.382;2023-06-14T13:15:58;8.02;;;3.45;;
20069;SDS011;10195;50.868;4.382;2023-06-14T13:18:23;8.52;;;3.38;;
20069;SDS011;10195;50.868;4.382;2023-06-14T13:20:49;6.85;;;3.20;;
20069;SDS011;10195;50.868;4.382;2023-06-14T13:23:15;6.30;;;3.00;;
20069;SDS011;10195;50.868;4.382;2023-06-14T13:25:41;11.70;;;3.72;;
20069;SDS011;10195;50.868;4.382;2023-06-14T13:28:08;7.90;;;3.35;;
20069;SDS011;10195;50.868;4.382;2023-06-14T13:30:34;19.83;;;3.90;;
20069;SDS011;10195;50.868;4.382;2023-06-14T13:32:59;9.70;;;3.50;;
20069;SDS011;10195;50.868;4.382;2023-06-14T13:35:25;8.75;;;3.45;;
20069;SDS011;10195;50.868;4.382;2023-06-14T13:37:51;13.20;;;3.88;;
20069;SDS011;10195;50.868;4.382;2023-06-14T13:40:17;6.22;;;3.13;;
20069;SDS011;10195;50.868;4.382;2023-06-14T13:42:43;12.32;;;3.33;;
20069;SDS011;10195;50.868;4.382;2023-06-14T13:45:10;8.38;;;3.08;;
20069;SDS011;10195;50.868;4.382;2023-06-14T13:47:36;6.00;;;3.42;;
20069;SDS011;10195;50.868;4.382;2023-06-14T13:50:03;6.60;;;3.30;;
20069;SDS011;10195;50.868;4.382;2023-06-14T13:52:29;7.57;;;3.38;;
20069;SDS011;10195;50.868;4.382;2023-06-14T13:54:54;12.70;;;2.97;;
20069;SDS011;10195;50.868;4.382;2023-06-14T13:57:20;5.60;;;2.85;;
20069;SDS011;10195;50.868;4.382;2023-06-14T13:59:46;2.47;;;1.77;;
20069;SDS011;10195;50.868;4.382;2023-06-14T14:02:13;5.97;;;2.78;;
20069;SDS011;10195;50.868;4.382;2023-06-14T14:04:39;5.72;;;2.50;;
20069;SDS011;10195;50.868;4.382;2023-06-14T14:07:06;6.05;;;2.60;;
20069;SDS011;10195;50.868;4.382;2023-06-14T14:09:32;8.07;;;3.08;;
20069;SDS011;10195;50.868;4.382;2023-06-14T14:11:59;6.03;;;2.90;;
20069;SDS011;10195;50.868;4.382;2023-06-14T14:14:27;6.07;;;2.35;;
20069;SDS011;10195;50.868;4.382;2023-06-14T14:16:53;10.50;;;2.22;;
20069;SDS011;10195;50.868;4.382;2023-06-14T14:19:19;8.98;;;2.20;;
20069;SDS011;10195;50.868;4.382;2023-06-14T14:21:46;6.00;;;2.00;;
20069;SDS011;10195;50.868;4.382;2023-06-14T14:24:11;4.93;;;2.50;;
20069;SDS011;10195;50.868;4.382;2023-06-14T14:26:38;5.88;;;2.00;;
20069;SDS011;10195;50.868;4.382;2023-06-14T14:29:04;7.18;;;2.25;;
20069;SDS011;10195;50.868;4.382;2023-06-14T14:31:29;7.43;;;2.30;;
20069;SDS011;10195;50.868;4.382;2023-06-14T14:33:55;5.05;;;2.03;;
20069;SDS011;10195;50.868;4.382;2023-06-14T14:36:21;3.20;;;2.10;;
20069;SDS011;10195;50.868;4.382;2023-06-14T14:38:46;7.18;;;1.92;;
20069;SDS011;10195;50.868;4.382;2023-06-14T14:41:12;2.47;;;1.83;;
20069;SDS011;10195;50.868;4.382;2023-06-14T14:43:38;12.38;;;1.90;;
20069;SDS011;10195;50.868;4.382;2023-06-14T14:46:04;6.22;;;1.92;;
20069;SDS011;10195;50.868;4.382;2023-06-14T14:48:30;5.55;;;1.92;;
20069;SDS011;10195;50.868;4.382;2023-06-14T14:50:55;2.55;;;1.55;;
20069;SDS011;10195;50.868;4.382;2023-06-14T14:53:21;3.80;;;1.90;;
20069;SDS011;10195;50.868;4.382;2023-06-14T14:55:47;5.63;;;1.98;;
20069;SDS011;10195;50.868;4.382;2023-06-14T14:58:13;4.43;;;1.67;;
20069;SDS011;10195;50.868;4.382;2023-06-14T15:00:42;4.40;;;1.75;;
20069;SDS011;10195;50.868;4.382;2023-06-14T15:03:07;4.95;;;1.90;;
20069;SDS011;10195;50.868;4.382;2023-06-14T15:05:33;9.77;;;1.88;;
20069;SDS011;10195;50.868;4.382;2023-06-14T15:07:59;4.53;;;1.80;;
20069;SDS011;10195;50.868;4.382;2023-06-14T15:10:24;8.80;;;2.17;;
20069;SDS011;10195;50.868;4.382;2023-06-14T15:12:50;5.80;;;1.85;;
20069;SDS011;10195;50.868;4.382;2023-06-14T15:15:15;5.00;;;1.90;;
20069;SDS011;10195;50.868;4.382;2023-06-14T15:17:41;11.88;;;2.30;;
20069;SDS011;10195;50.868;4.382;2023-06-14T15:20:07;2.33;;;1.90;;
20069;SDS011;10195;50.868;4.382;2023-06-14T15:22:33;5.05;;;2.00;;
20069;SDS011;10195;50.868;4.382;2023-06-14T15:24:58;2.33;;;1.75;;
20069;SDS011;10195;50.868;4.382;2023-06-14T15:27:24;5.03;;;1.83;;
20069;SDS011;10195;50.868;4.382;2023-06-14T15:29:50;5.53;;;2.10;;
20069;SDS011;10195;50.868;4.382;2023-06-14T15:32:16;6.60;;;2.28;;